NZCH/CHC METAR and TAF weather

Enter ICAO airport designator
Station Type Date Time Source
NZCH METAR 2019/04/20 18:00 UTC NOAA

NZCH 201800Z AUTO 24009KT 9999 -DZ FEW020/// OVC060/// 11/10 Q1019 NOSIG


Station Type Date Time Source
NZCH Decoded METAR 2019/04/20 18:00 UTC NOAA

Christchurch, New Zealand (NZCH) 43-29S 172-33E 30M
Apr 20, 2019 - 02:00 PM EDT / 2019.04.20 1800 UTC
Wind: from the WSW (240 degrees) at 10 MPH (9 KT):0
Visibility: greater than 7 mile(s):0
Sky conditions: overcast
Weather: light drizzle
Temperature: 51 F (11 C)
Dew Point: 50 F (10 C)
Relative Humidity: 93%
Pressure (altimeter): 30.09 in. Hg (1019 hPa)
ob: NZCH 201800Z AUTO 24009KT 9999 -DZ FEW020/// OVC060/// 11/10 Q1019 NOSIG
cycle: 18

Station Type Date Time Source
NZCH TAF 2019/04/20 18:05 UTC NOAA

TAF NZCH 201702Z 2018/2118 22008KT 9999 -RA SCT012 BKN020
TEMPO 2018/2106 7000 RA BKN012
TEMPO 2106/2114 6000 RA BKN010
TEMPO 2114/2118 BKN012

Example: see airport list